sensor_id;sensor_type;location;lat;lon;timestamp;P1;durP1;ratioP1;P2;durP2;ratioP2
3901;SDS011;1966;49.908;9.156;2022-07-10T00:04:56;8.93;;;8.00;;
3901;SDS011;1966;49.908;9.156;2022-07-10T00:09:57;9.00;;;8.10;;
3901;SDS011;1966;49.908;9.156;2022-07-10T00:14:57;8.60;;;7.80;;
3901;SDS011;1966;49.908;9.156;2022-07-10T00:19:58;9.60;;;8.60;;
3901;SDS011;1966;49.908;9.156;2022-07-10T00:24:59;8.47;;;7.67;;
3901;SDS011;1966;49.908;9.156;2022-07-10T00:30:00;8.97;;;8.10;;
3901;SDS011;1966;49.908;9.156;2022-07-10T00:35:00;8.57;;;7.87;;
3901;SDS011;1966;49.908;9.156;2022-07-10T00:40:02;8.47;;;7.77;;
3901;SDS011;1966;49.908;9.156;2022-07-10T00:45:03;8.53;;;7.73;;
3901;SDS011;1966;49.908;9.156;2022-07-10T00:50:04;8.90;;;7.97;;
3901;SDS011;1966;49.908;9.156;2022-07-10T00:55:07;8.77;;;7.87;;
3901;SDS011;1966;49.908;9.156;2022-07-10T01:00:09;9.17;;;8.27;;
3901;SDS011;1966;49.908;9.156;2022-07-10T01:05:10;9.20;;;8.40;;
3901;SDS011;1966;49.908;9.156;2022-07-10T01:10:11;8.83;;;7.97;;
3901;SDS011;1966;49.908;9.156;2022-07-10T01:15:11;8.50;;;7.60;;
3901;SDS011;1966;49.908;9.156;2022-07-10T01:20:11;9.30;;;8.30;;
3901;SDS011;1966;49.908;9.156;2022-07-10T01:25:13;8.07;;;7.27;;
3901;SDS011;1966;49.908;9.156;2022-07-10T01:30:13;8.80;;;7.43;;
3901;SDS011;1966;49.908;9.156;2022-07-10T01:35:13;9.63;;;7.97;;
3901;SDS011;1966;49.908;9.156;2022-07-10T01:40:15;9.17;;;8.27;;
3901;SDS011;1966;49.908;9.156;2022-07-10T01:45:16;9.13;;;8.23;;
3901;SDS011;1966;49.908;9.156;2022-07-10T01:50:16;9.67;;;8.60;;
3901;SDS011;1966;49.908;9.156;2022-07-10T01:55:17;9.13;;;8.23;;
3901;SDS011;1966;49.908;9.156;2022-07-10T02:00:17;9.37;;;8.30;;
3901;SDS011;1966;49.908;9.156;2022-07-10T02:05:17;10.10;;;8.43;;
3901;SDS011;1966;49.908;9.156;2022-07-10T02:10:19;9.00;;;8.07;;
3901;SDS011;1966;49.908;9.156;2022-07-10T02:15:19;8.40;;;7.60;;
3901;SDS011;1966;49.908;9.156;2022-07-10T02:20:19;9.40;;;8.40;;
3901;SDS011;1966;49.908;9.156;2022-07-10T02:25:20;8.33;;;7.37;;
3901;SDS011;1966;49.908;9.156;2022-07-10T02:30:20;8.63;;;7.60;;
3901;SDS011;1966;49.908;9.156;2022-07-10T02:35:20;9.73;;;8.70;;
3901;SDS011;1966;49.908;9.156;2022-07-10T02:40:21;9.20;;;8.17;;
3901;SDS011;1966;49.908;9.156;2022-07-10T02:45:21;9.33;;;8.43;;
3901;SDS011;1966;49.908;9.156;2022-07-10T02:50:22;10.90;;;8.70;;
3901;SDS011;1966;49.908;9.156;2022-07-10T02:55:23;10.67;;;8.60;;
3901;SDS011;1966;49.908;9.156;2022-07-10T03:00:23;9.30;;;8.37;;
3901;SDS011;1966;49.908;9.156;2022-07-10T03:05:23;8.87;;;8.07;;
3901;SDS011;1966;49.908;9.156;2022-07-10T03:10:24;8.77;;;7.90;;
3901;SDS011;1966;49.908;9.156;2022-07-10T03:15:24;8.10;;;7.40;;
3901;SDS011;1966;49.908;9.156;2022-07-10T03:20:24;8.97;;;8.10;;
3901;SDS011;1966;49.908;9.156;2022-07-10T03:25:26;8.97;;;8.07;;
3901;SDS011;1966;49.908;9.156;2022-07-10T03:30:26;9.57;;;8.60;;
3901;SDS011;1966;49.908;9.156;2022-07-10T03:35:26;8.23;;;7.53;;
3901;SDS011;1966;49.908;9.156;2022-07-10T03:40:28;11.37;;;8.40;;
3901;SDS011;1966;49.908;9.156;2022-07-10T03:45:28;9.63;;;8.63;;
3901;SDS011;1966;49.908;9.156;2022-07-10T03:50:28;9.20;;;7.07;;
3901;SDS011;1966;49.908;9.156;2022-07-10T03:55:29;9.00;;;7.73;;
3901;SDS011;1966;49.908;9.156;2022-07-10T04:00:30;9.23;;;7.77;;
3901;SDS011;1966;49.908;9.156;2022-07-10T04:05:31;8.53;;;7.73;;
3901;SDS011;1966;49.908;9.156;2022-07-10T04:10:32;8.37;;;7.57;;
3901;SDS011;1966;49.908;9.156;2022-07-10T04:15:32;9.03;;;7.93;;
3901;SDS011;1966;49.908;9.156;2022-07-10T04:20:32;8.13;;;7.33;;
3901;SDS011;1966;49.908;9.156;2022-07-10T04:25:34;8.00;;;7.20;;
3901;SDS011;1966;49.908;9.156;2022-07-10T04:30:34;8.10;;;7.40;;
3901;SDS011;1966;49.908;9.156;2022-07-10T04:35:34;9.43;;;7.40;;
3901;SDS011;1966;49.908;9.156;2022-07-10T04:40:35;7.53;;;6.83;;
3901;SDS011;1966;49.908;9.156;2022-07-10T04:45:35;8.70;;;7.50;;
3901;SDS011;1966;49.908;9.156;2022-07-10T04:50:36;6.60;;;5.90;;
3901;SDS011;1966;49.908;9.156;2022-07-10T04:55:37;6.90;;;5.60;;
3901;SDS011;1966;49.908;9.156;2022-07-10T05:00:37;9.67;;;5.53;;
3901;SDS011;1966;49.908;9.156;2022-07-10T05:05:37;5.73;;;4.43;;
3901;SDS011;1966;49.908;9.156;2022-07-10T05:10:38;5.20;;;3.37;;
3901;SDS011;1966;49.908;9.156;2022-07-10T05:15:39;4.00;;;3.20;;
3901;SDS011;1966;49.908;9.156;2022-07-10T05:20:39;7.17;;;3.20;;
3901;SDS011;1966;49.908;9.156;2022-07-10T05:25:43;5.80;;;3.00;;
3901;SDS011;1966;49.908;9.156;2022-07-10T05:30:43;3.53;;;2.60;;
3901;SDS011;1966;49.908;9.156;2022-07-10T05:35:43;2.93;;;2.60;;
3901;SDS011;1966;49.908;9.156;2022-07-10T05:40:44;7.83;;;2.60;;
3901;SDS011;1966;49.908;9.156;2022-07-10T05:45:44;5.33;;;2.70;;
3901;SDS011;1966;49.908;9.156;2022-07-10T05:50:44;5.17;;;2.50;;
3901;SDS011;1966;49.908;9.156;2022-07-10T05:55:47;4.80;;;2.40;;
3901;SDS011;1966;49.908;9.156;2022-07-10T06:00:47;7.77;;;2.40;;
3901;SDS011;1966;49.908;9.156;2022-07-10T06:05:48;4.90;;;2.60;;
3901;SDS011;1966;49.908;9.156;2022-07-10T06:10:49;3.77;;;2.43;;
3901;SDS011;1966;49.908;9.156;2022-07-10T06:15:49;4.63;;;2.40;;
3901;SDS011;1966;49.908;9.156;2022-07-10T06:20:49;4.90;;;2.30;;
3901;SDS011;1966;49.908;9.156;2022-07-10T06:25:51;3.23;;;2.10;;
3901;SDS011;1966;49.908;9.156;2022-07-10T06:30:51;4.10;;;1.90;;
3901;SDS011;1966;49.908;9.156;2022-07-10T06:35:51;3.13;;;2.03;;
3901;SDS011;1966;49.908;9.156;2022-07-10T06:40:52;3.00;;;1.90;;
3901;SDS011;1966;49.908;9.156;2022-07-10T06:45:52;5.80;;;2.37;;
3901;SDS011;1966;49.908;9.156;2022-07-10T06:50:52;5.30;;;2.23;;
3901;SDS011;1966;49.908;9.156;2022-07-10T06:55:54;5.47;;;1.97;;
3901;SDS011;1966;49.908;9.156;2022-07-10T07:00:54;5.50;;;2.13;;
3901;SDS011;1966;49.908;9.156;2022-07-10T07:05:54;2.07;;;1.70;;
3901;SDS011;1966;49.908;9.156;2022-07-10T07:10:55;2.40;;;1.60;;
3901;SDS011;1966;49.908;9.156;2022-07-10T07:15:55;3.33;;;1.53;;
3901;SDS011;1966;49.908;9.156;2022-07-10T07:20:58;2.87;;;1.70;;
3901;SDS011;1966;49.908;9.156;2022-07-10T07:26:17;3.63;;;1.60;;
3901;SDS011;1966;49.908;9.156;2022-07-10T07:31:17;4.43;;;1.80;;
3901;SDS011;1966;49.908;9.156;2022-07-10T07:36:18;4.73;;;1.70;;
3901;SDS011;1966;49.908;9.156;2022-07-10T07:41:20;3.67;;;1.70;;
3901;SDS011;1966;49.908;9.156;2022-07-10T07:46:19;1.63;;;1.47;;
3901;SDS011;1966;49.908;9.156;2022-07-10T07:51:20;1.70;;;1.40;;
3901;SDS011;1966;49.908;9.156;2022-07-10T07:56:21;4.60;;;1.67;;
3901;SDS011;1966;49.908;9.156;2022-07-10T08:01:21;2.80;;;1.50;;
3901;SDS011;1966;49.908;9.156;2022-07-10T08:06:21;2.87;;;1.33;;
3901;SDS011;1966;49.908;9.156;2022-07-10T08:11:22;2.97;;;1.50;;
3901;SDS011;1966;49.908;9.156;2022-07-10T08:16:22;2.90;;;1.83;;
3901;SDS011;1966;49.908;9.156;2022-07-10T08:21:22;4.50;;;1.70;;
3901;SDS011;1966;49.908;9.156;2022-07-10T08:26:24;7.67;;;1.77;;
3901;SDS011;1966;49.908;9.156;2022-07-10T08:31:24;3.73;;;1.80;;
3901;SDS011;1966;49.908;9.156;2022-07-10T08:36:24;1.63;;;1.37;;
3901;SDS011;1966;49.908;9.156;2022-07-10T08:41:26;2.37;;;1.70;;
3901;SDS011;1966;49.908;9.156;2022-07-10T08:46:26;2.80;;;1.83;;
3901;SDS011;1966;49.908;9.156;2022-07-10T08:51:30;2.50;;;1.70;;
3901;SDS011;1966;49.908;9.156;2022-07-10T08:56:36;4.43;;;2.53;;
3901;SDS011;1966;49.908;9.156;2022-07-10T09:01:36;2.40;;;1.50;;
3901;SDS011;1966;49.908;9.156;2022-07-10T09:06:36;6.73;;;1.60;;
3901;SDS011;1966;49.908;9.156;2022-07-10T09:11:38;3.27;;;1.50;;
3901;SDS011;1966;49.908;9.156;2022-07-10T09:16:41;2.87;;;1.60;;
3901;SDS011;1966;49.908;9.156;2022-07-10T09:21:41;3.30;;;1.70;;
3901;SDS011;1966;49.908;9.156;2022-07-10T09:26:43;2.47;;;1.70;;
3901;SDS011;1966;49.908;9.156;2022-07-10T09:31:50;2.60;;;1.50;;
3901;SDS011;1966;49.908;9.156;2022-07-10T09:36:50;3.53;;;1.37;;
3901;SDS011;1966;49.908;9.156;2022-07-10T09:41:52;5.30;;;1.60;;
3901;SDS011;1966;49.908;9.156;2022-07-10T09:46:52;1.60;;;1.50;;
3901;SDS011;1966;49.908;9.156;2022-07-10T09:51:52;1.83;;;1.40;;
3901;SDS011;1966;49.908;9.156;2022-07-10T09:56:53;2.53;;;1.53;;
3901;SDS011;1966;49.908;9.156;2022-07-10T10:01:55;1.50;;;1.40;;
3901;SDS011;1966;49.908;9.156;2022-07-10T10:06:56;4.00;;;2.00;;
3901;SDS011;1966;49.908;9.156;2022-07-10T10:11:59;2.90;;;1.70;;
3901;SDS011;1966;49.908;9.156;2022-07-10T10:17:01;2.50;;;1.50;;
3901;SDS011;1966;49.908;9.156;2022-07-10T10:22:02;1.90;;;1.50;;
3901;SDS011;1966;49.908;9.156;2022-07-10T10:27:04;1.93;;;1.40;;
3901;SDS011;1966;49.908;9.156;2022-07-10T10:32:04;1.83;;;1.50;;
3901;SDS011;1966;49.908;9.156;2022-07-10T10:37:05;2.73;;;1.47;;
3901;SDS011;1966;49.908;9.156;2022-07-10T10:42:07;4.00;;;2.20;;
3901;SDS011;1966;49.908;9.156;2022-07-10T10:47:07;1.80;;;1.50;;
3901;SDS011;1966;49.908;9.156;2022-07-10T10:52:08;4.30;;;1.67;;
3901;SDS011;1966;49.908;9.156;2022-07-10T10:57:13;1.47;;;1.30;;
3901;SDS011;1966;49.908;9.156;2022-07-10T11:02:24;1.70;;;1.60;;
3901;SDS011;1966;49.908;9.156;2022-07-10T11:13:00;1.70;;;1.60;;
3901;SDS011;1966;49.908;9.156;2022-07-10T11:18:05;4.50;;;2.17;;
3901;SDS011;1966;49.908;9.156;2022-07-10T11:23:13;2.17;;;1.40;;
3901;SDS011;1966;49.908;9.156;2022-07-10T11:28:21;2.10;;;1.90;;
3901;SDS011;1966;49.908;9.156;2022-07-10T11:33:21;2.83;;;1.87;;
3901;SDS011;1966;49.908;9.156;2022-07-10T11:38:22;4.30;;;2.20;;
3901;SDS011;1966;49.908;9.156;2022-07-10T11:43:23;6.93;;;1.97;;
3901;SDS011;1966;49.908;9.156;2022-07-10T11:48:23;5.17;;;1.77;;
3901;SDS011;1966;49.908;9.156;2022-07-10T11:53:24;4.53;;;1.90;;
3901;SDS011;1966;49.908;9.156;2022-07-10T11:58:25;2.60;;;1.73;;
3901;SDS011;1966;49.908;9.156;2022-07-10T12:03:26;5.70;;;1.77;;
3901;SDS011;1966;49.908;9.156;2022-07-10T12:08:26;5.53;;;1.80;;
3901;SDS011;1966;49.908;9.156;2022-07-10T12:13:27;2.27;;;1.60;;
3901;SDS011;1966;49.908;9.156;2022-07-10T12:18:28;2.53;;;1.73;;
3901;SDS011;1966;49.908;9.156;2022-07-10T12:23:30;1.90;;;1.70;;
3901;SDS011;1966;49.908;9.156;2022-07-10T12:28:32;3.60;;;1.60;;
3901;SDS011;1966;49.908;9.156;2022-07-10T12:33:49;1.53;;;1.40;;
3901;SDS011;1966;49.908;9.156;2022-07-10T12:38:53;3.03;;;1.80;;
3901;SDS011;1966;49.908;9.156;2022-07-10T12:43:55;2.07;;;1.67;;
3901;SDS011;1966;49.908;9.156;2022-07-10T12:49:05;1.90;;;1.63;;
3901;SDS011;1966;49.908;9.156;2022-07-10T12:54:05;4.87;;;1.70;;
3901;SDS011;1966;49.908;9.156;2022-07-10T12:59:12;4.23;;;1.97;;
3901;SDS011;1966;49.908;9.156;2022-07-10T13:04:13;1.80;;;1.70;;
3901;SDS011;1966;49.908;9.156;2022-07-10T13:09:18;3.17;;;1.67;;
3901;SDS011;1966;49.908;9.156;2022-07-10T13:14:20;2.67;;;1.80;;
3901;SDS011;1966;49.908;9.156;2022-07-10T13:19:21;2.27;;;1.60;;
3901;SDS011;1966;49.908;9.156;2022-07-10T13:24:21;3.90;;;1.60;;
3901;SDS011;1966;49.908;9.156;2022-07-10T13:29:22;3.50;;;1.60;;
3901;SDS011;1966;49.908;9.156;2022-07-10T13:34:22;3.53;;;1.63;;
3901;SDS011;1966;49.908;9.156;2022-07-10T13:39:22;5.23;;;1.80;;
3901;SDS011;1966;49.908;9.156;2022-07-10T13:44:23;3.50;;;1.80;;
3901;SDS011;1966;49.908;9.156;2022-07-10T13:49:23;3.93;;;1.87;;
3901;SDS011;1966;49.908;9.156;2022-07-10T13:54:25;2.10;;;1.73;;
3901;SDS011;1966;49.908;9.156;2022-07-10T13:59:27;4.20;;;1.87;;
3901;SDS011;1966;49.908;9.156;2022-07-10T14:04:27;2.70;;;1.70;;
3901;SDS011;1966;49.908;9.156;2022-07-10T14:09:27;3.80;;;1.77;;
3901;SDS011;1966;49.908;9.156;2022-07-10T14:14:28;3.17;;;1.93;;
3901;SDS011;1966;49.908;9.156;2022-07-10T14:19:28;2.10;;;1.90;;
3901;SDS011;1966;49.908;9.156;2022-07-10T14:24:28;3.70;;;1.73;;
3901;SDS011;1966;49.908;9.156;2022-07-10T14:29:29;4.20;;;2.10;;
3901;SDS011;1966;49.908;9.156;2022-07-10T14:34:29;2.90;;;1.80;;
3901;SDS011;1966;49.908;9.156;2022-07-10T14:39:29;6.20;;;1.87;;
3901;SDS011;1966;49.908;9.156;2022-07-10T14:44:31;4.30;;;2.00;;
3901;SDS011;1966;49.908;9.156;2022-07-10T14:49:32;3.10;;;2.00;;
3901;SDS011;1966;49.908;9.156;2022-07-10T14:54:32;7.37;;;1.90;;
3901;SDS011;1966;49.908;9.156;2022-07-10T14:59:33;2.60;;;2.13;;
3901;SDS011;1966;49.908;9.156;2022-07-10T15:04:33;3.93;;;1.80;;
3901;SDS011;1966;49.908;9.156;2022-07-10T15:09:33;7.93;;;2.20;;
3901;SDS011;1966;49.908;9.156;2022-07-10T15:14:34;2.40;;;1.73;;
3901;SDS011;1966;49.908;9.156;2022-07-10T15:19:34;2.63;;;1.60;;
3901;SDS011;1966;49.908;9.156;2022-07-10T15:24:34;3.13;;;1.77;;
3901;SDS011;1966;49.908;9.156;2022-07-10T15:29:36;4.20;;;2.00;;
3901;SDS011;1966;49.908;9.156;2022-07-10T15:34:36;2.17;;;1.87;;
3901;SDS011;1966;49.908;9.156;2022-07-10T15:39:37;3.10;;;1.93;;
3901;SDS011;1966;49.908;9.156;2022-07-10T15:44:42;4.30;;;2.00;;
3901;SDS011;1966;49.908;9.156;2022-07-10T15:49:42;4.47;;;1.70;;
3901;SDS011;1966;49.908;9.156;2022-07-10T15:54:42;3.57;;;2.07;;
3901;SDS011;1966;49.908;9.156;2022-07-10T15:59:44;3.80;;;2.00;;
3901;SDS011;1966;49.908;9.156;2022-07-10T16:04:44;2.10;;;1.90;;
3901;SDS011;1966;49.908;9.156;2022-07-10T16:09:44;6.00;;;2.30;;
3901;SDS011;1966;49.908;9.156;2022-07-10T16:14:45;3.93;;;2.10;;
3901;SDS011;1966;49.908;9.156;2022-07-10T16:19:46;5.23;;;2.10;;
3901;SDS011;1966;49.908;9.156;2022-07-10T16:24:45;4.50;;;1.80;;
3901;SDS011;1966;49.908;9.156;2022-07-10T16:30:05;2.47;;;1.97;;
3901;SDS011;1966;49.908;9.156;2022-07-10T16:35:05;4.30;;;1.90;;
3901;SDS011;1966;49.908;9.156;2022-07-10T16:40:07;3.03;;;1.80;;
3901;SDS011;1966;49.908;9.156;2022-07-10T16:45:09;5.47;;;2.57;;
3901;SDS011;1966;49.908;9.156;2022-07-10T16:50:09;4.13;;;2.63;;
3901;SDS011;1966;49.908;9.156;2022-07-10T16:55:10;4.30;;;2.77;;
3901;SDS011;1966;49.908;9.156;2022-07-10T17:00:12;2.53;;;1.80;;
3901;SDS011;1966;49.908;9.156;2022-07-10T17:05:13;3.00;;;1.90;;
3901;SDS011;1966;49.908;9.156;2022-07-10T17:10:13;2.60;;;1.60;;
3901;SDS011;1966;49.908;9.156;2022-07-10T17:15:14;5.93;;;2.70;;
3901;SDS011;1966;49.908;9.156;2022-07-10T17:20:14;6.30;;;2.00;;
3901;SDS011;1966;49.908;9.156;2022-07-10T17:25:14;2.23;;;1.93;;
3901;SDS011;1966;49.908;9.156;2022-07-10T17:30:16;2.67;;;1.97;;
3901;SDS011;1966;49.908;9.156;2022-07-10T17:35:17;4.60;;;1.77;;
3901;SDS011;1966;49.908;9.156;2022-07-10T17:40:17;4.47;;;1.97;;
3901;SDS011;1966;49.908;9.156;2022-07-10T17:45:19;2.30;;;1.80;;
3901;SDS011;1966;49.908;9.156;2022-07-10T17:50:19;4.90;;;2.10;;
3901;SDS011;1966;49.908;9.156;2022-07-10T17:55:19;1.90;;;1.70;;
3901;SDS011;1966;49.908;9.156;2022-07-10T18:00:20;3.13;;;1.80;;
3901;SDS011;1966;49.908;9.156;2022-07-10T18:05:20;1.50;;;1.40;;
3901;SDS011;1966;49.908;9.156;2022-07-10T18:10:20;2.00;;;1.50;;
3901;SDS011;1966;49.908;9.156;2022-07-10T18:15:22;6.33;;;2.30;;
3901;SDS011;1966;49.908;9.156;2022-07-10T18:20:22;1.80;;;1.70;;
3901;SDS011;1966;49.908;9.156;2022-07-10T18:25:22;6.53;;;1.80;;
3901;SDS011;1966;49.908;9.156;2022-07-10T18:30:23;1.70;;;1.60;;
3901;SDS011;1966;49.908;9.156;2022-07-10T18:35:23;2.10;;;1.90;;
3901;SDS011;1966;49.908;9.156;2022-07-10T18:40:24;1.80;;;1.70;;
3901;SDS011;1966;49.908;9.156;2022-07-10T18:45:25;2.10;;;1.90;;
3901;SDS011;1966;49.908;9.156;2022-07-10T18:50:25;1.83;;;1.73;;
3901;SDS011;1966;49.908;9.156;2022-07-10T18:55:26;2.10;;;1.80;;
3901;SDS011;1966;49.908;9.156;2022-07-10T19:00:27;1.60;;;1.50;;
3901;SDS011;1966;49.908;9.156;2022-07-10T19:05:27;2.27;;;1.70;;
3901;SDS011;1966;49.908;9.156;2022-07-10T19:10:27;1.90;;;1.80;;
3901;SDS011;1966;49.908;9.156;2022-07-10T19:15:28;2.07;;;1.73;;
3901;SDS011;1966;49.908;9.156;2022-07-10T19:20:29;2.60;;;2.40;;
3901;SDS011;1966;49.908;9.156;2022-07-10T19:25:29;3.00;;;1.93;;
3901;SDS011;1966;49.908;9.156;2022-07-10T19:30:33;2.23;;;2.00;;
3901;SDS011;1966;49.908;9.156;2022-07-10T19:35:33;2.67;;;2.43;;
3901;SDS011;1966;49.908;9.156;2022-07-10T19:40:34;2.60;;;2.40;;
3901;SDS011;1966;49.908;9.156;2022-07-10T19:45:35;2.77;;;2.43;;
3901;SDS011;1966;49.908;9.156;2022-07-10T19:50:35;2.60;;;2.40;;
3901;SDS011;1966;49.908;9.156;2022-07-10T19:55:35;2.60;;;2.40;;
3901;SDS011;1966;49.908;9.156;2022-07-10T20:00:36;2.87;;;2.20;;
3901;SDS011;1966;49.908;9.156;2022-07-10T20:05:36;2.93;;;2.63;;
3901;SDS011;1966;49.908;9.156;2022-07-10T20:10:36;2.57;;;2.37;;
3901;SDS011;1966;49.908;9.156;2022-07-10T20:15:38;4.70;;;2.47;;
3901;SDS011;1966;49.908;9.156;2022-07-10T20:20:38;3.07;;;2.77;;
3901;SDS011;1966;49.908;9.156;2022-07-10T20:25:38;3.90;;;3.60;;
3901;SDS011;1966;49.908;9.156;2022-07-10T20:30:39;8.30;;;2.87;;
3901;SDS011;1966;49.908;9.156;2022-07-10T20:35:39;3.00;;;2.70;;
3901;SDS011;1966;49.908;9.156;2022-07-10T20:40:40;3.00;;;2.80;;
3901;SDS011;1966;49.908;9.156;2022-07-10T20:45:43;3.40;;;3.10;;
3901;SDS011;1966;49.908;9.156;2022-07-10T20:50:43;3.50;;;3.20;;
3901;SDS011;1966;49.908;9.156;2022-07-10T20:55:43;3.00;;;2.80;;
3901;SDS011;1966;49.908;9.156;2022-07-10T21:00:45;5.23;;;3.57;;
3901;SDS011;1966;49.908;9.156;2022-07-10T21:05:45;2.80;;;2.60;;
3901;SDS011;1966;49.908;9.156;2022-07-10T21:10:45;2.70;;;2.50;;
3901;SDS011;1966;49.908;9.156;2022-07-10T21:15:47;2.73;;;2.53;;
3901;SDS011;1966;49.908;9.156;2022-07-10T21:20:47;3.07;;;2.87;;
3901;SDS011;1966;49.908;9.156;2022-07-10T21:25:47;2.80;;;2.60;;
3901;SDS011;1966;49.908;9.156;2022-07-10T21:30:48;3.00;;;2.80;;
3901;SDS011;1966;49.908;9.156;2022-07-10T21:35:49;2.77;;;2.30;;
3901;SDS011;1966;49.908;9.156;2022-07-10T21:40:48;2.60;;;2.40;;
3901;SDS011;1966;49.908;9.156;2022-07-10T21:45:50;4.60;;;2.00;;
3901;SDS011;1966;49.908;9.156;2022-07-10T21:50:50;2.70;;;2.50;;
3901;SDS011;1966;49.908;9.156;2022-07-10T21:55:50;2.73;;;2.13;;
3901;SDS011;1966;49.908;9.156;2022-07-10T22:00:51;2.30;;;2.20;;
3901;SDS011;1966;49.908;9.156;2022-07-10T22:05:51;2.60;;;2.40;;
3901;SDS011;1966;49.908;9.156;2022-07-10T22:10:51;3.00;;;2.80;;
3901;SDS011;1966;49.908;9.156;2022-07-10T22:15:53;2.70;;;2.50;;
3901;SDS011;1966;49.908;9.156;2022-07-10T22:20:53;2.57;;;2.47;;
3901;SDS011;1966;49.908;9.156;2022-07-10T22:25:53;3.13;;;2.43;;
3901;SDS011;1966;49.908;9.156;2022-07-10T22:30:54;2.57;;;2.47;;
3901;SDS011;1966;49.908;9.156;2022-07-10T22:36:12;2.50;;;2.30;;
3901;SDS011;1966;49.908;9.156;2022-07-10T22:41:12;2.57;;;2.43;;
3901;SDS011;1966;49.908;9.156;2022-07-10T22:46:13;2.63;;;2.43;;
3901;SDS011;1966;49.908;9.156;2022-07-10T22:51:13;2.67;;;2.47;;
3901;SDS011;1966;49.908;9.156;2022-07-10T22:56:13;2.83;;;2.63;;
3901;SDS011;1966;49.908;9.156;2022-07-10T23:01:16;2.83;;;2.63;;
3901;SDS011;1966;49.908;9.156;2022-07-10T23:06:16;2.97;;;2.77;;
3901;SDS011;1966;49.908;9.156;2022-07-10T23:11:19;3.23;;;3.03;;
3901;SDS011;1966;49.908;9.156;2022-07-10T23:16:21;3.43;;;3.23;;
3901;SDS011;1966;49.908;9.156;2022-07-10T23:21:21;3.20;;;3.00;;
3901;SDS011;1966;49.908;9.156;2022-07-10T23:26:21;4.17;;;3.87;;
3901;SDS011;1966;49.908;9.156;2022-07-10T23:31:22;5.30;;;4.60;;
3901;SDS011;1966;49.908;9.156;2022-07-10T23:36:22;4.20;;;3.90;;
3901;SDS011;1966;49.908;9.156;2022-07-10T23:41:22;3.73;;;3.50;;
3901;SDS011;1966;49.908;9.156;2022-07-10T23:46:24;4.20;;;3.90;;
3901;SDS011;1966;49.908;9.156;2022-07-10T23:51:24;4.23;;;3.90;;
3901;SDS011;1966;49.908;9.156;2022-07-10T23:56:24;4.10;;;3.80;;
